createdAt,value
2019-04-11T00:00:31.368Z,6.40
2019-04-11T00:03:00.794Z,6.30
2019-04-11T00:05:30.634Z,6.30
2019-04-11T00:07:59.807Z,6.30
2019-04-11T00:10:29.270Z,6.30
2019-04-11T00:12:58.986Z,6.30
2019-04-11T00:15:28.788Z,6.20
2019-04-11T00:17:58.493Z,6.10
2019-04-11T00:20:28.328Z,6.10
2019-04-11T00:22:57.658Z,6.10
2019-04-11T00:25:27.372Z,6.00
2019-04-11T00:27:57.284Z,6.00
2019-04-11T00:30:26.322Z,6.00
2019-04-11T00:32:55.979Z,6.00
2019-04-11T00:35:25.790Z,6.00
2019-04-11T00:37:54.404Z,6.00
2019-04-11T00:40:22.927Z,5.90
2019-04-11T00:42:52.630Z,5.90
2019-04-11T00:45:21.325Z,5.90
2019-04-11T00:47:49.788Z,5.80
2019-04-11T00:50:19.073Z,5.80
2019-04-11T00:52:47.736Z,5.80
2019-04-11T00:55:17.529Z,5.80
2019-04-11T00:57:47.373Z,5.70
2019-04-11T01:00:16.506Z,5.70
2019-04-11T01:02:45.446Z,5.70
2019-04-11T01:05:15.068Z,5.70
2019-04-11T01:07:44.075Z,5.60
2019-04-11T01:10:13.978Z,5.60
2019-04-11T01:12:42.955Z,5.60
2019-04-11T01:15:13.520Z,5.60
2019-04-11T01:17:42.376Z,5.60
2019-04-11T01:20:11.704Z,5.60
2019-04-11T01:22:40.497Z,5.50
2019-04-11T01:25:10.499Z,5.50
2019-04-11T01:27:40.006Z,5.50
2019-04-11T01:30:11.770Z,5.50
2019-04-11T01:32:40.351Z,5.50
2019-04-11T01:35:08.971Z,5.50
2019-04-11T01:37:39.803Z,5.40
2019-04-11T01:40:09.798Z,5.40
2019-04-11T01:42:39.670Z,5.40
2019-04-11T01:45:09.575Z,5.30
2019-04-11T01:47:46.909Z,5.30
2019-04-11T01:50:17.543Z,5.30
2019-04-11T01:52:46.690Z,5.30
2019-04-11T01:55:16.388Z,5.20
2019-04-11T01:57:45.078Z,5.20
2019-04-11T02:00:17.668Z,5.20
2019-04-11T02:02:56.973Z,5.10
2019-04-11T02:05:27.315Z,5.10
2019-04-11T02:07:55.919Z,5.10
2019-04-11T02:10:24.552Z,5.10
2019-04-11T02:12:53.260Z,5.10
2019-04-11T02:15:22.548Z,5.10
2019-04-11T02:17:51.155Z,5.00
2019-04-11T02:20:20.667Z,5.00
2019-04-11T02:22:53.491Z,5.00
2019-04-11T02:25:36.659Z,5.00
2019-04-11T02:28:07.054Z,5.00
2019-04-11T02:30:39.327Z,5.00
2019-04-11T02:33:09.458Z,5.00
2019-04-11T02:35:39.701Z,4.90
2019-04-11T02:38:09.785Z,4.90
2019-04-11T02:40:38.843Z,4.80
2019-04-11T02:43:09.173Z,4.80
2019-04-11T02:45:51.740Z,4.80
2019-04-11T02:48:10.086Z,4.80
2019-04-11T02:50:38.886Z,4.70
2019-04-11T02:53:09.461Z,4.70
2019-04-11T02:55:39.100Z,4.60
2019-04-11T02:58:08.143Z,4.60
2019-04-11T03:00:37.617Z,4.60
2019-04-11T03:03:08.467Z,4.50
2019-04-11T03:05:37.522Z,4.50
2019-04-11T03:08:11.446Z,4.50
2019-04-11T03:10:37.863Z,4.50
2019-04-11T03:13:08.256Z,4.40
2019-04-11T03:15:48.716Z,4.40
2019-04-11T03:18:09.874Z,4.30
2019-04-11T03:20:47.319Z,4.30
2019-04-11T03:23:10.902Z,4.30
2019-04-11T03:25:40.445Z,4.20
2019-04-11T03:28:14.082Z,4.20
2019-04-11T03:31:01.898Z,4.20
2019-04-11T03:34:09.070Z,4.20
2019-04-11T03:38:38.494Z,4.20
2019-04-11T03:40:57.733Z,4.20
2019-04-11T03:43:28.145Z,4.20
2019-04-11T03:45:58.953Z,4.20
2019-04-11T03:48:29.323Z,4.20
2019-04-11T03:50:44.837Z,4.20
2019-04-11T03:53:14.579Z,4.20
2019-04-11T03:55:43.594Z,4.10
2019-04-11T03:58:15.358Z,4.10
2019-04-11T04:00:44.608Z,4.10
2019-04-11T04:03:15.463Z,4.10
2019-04-11T04:05:44.732Z,4.10
2019-04-11T04:08:13.878Z,4.00
2019-04-11T04:11:00.887Z,4.00
2019-04-11T04:13:31.807Z,4.00
2019-04-11T04:16:12.183Z,4.00
2019-04-11T04:18:40.322Z,4.00
2019-04-11T04:21:17.435Z,4.00
2019-04-11T04:23:46.392Z,4.00
2019-04-11T04:26:16.773Z,4.00
2019-04-11T04:28:45.356Z,4.00
2019-04-11T04:31:14.230Z,3.90
2019-04-11T04:33:43.064Z,3.90
2019-04-11T04:36:13.895Z,3.80
2019-04-11T04:38:42.096Z,3.80
2019-04-11T04:41:22.417Z,3.80
2019-04-11T04:43:44.748Z,3.80
2019-04-11T04:46:31.428Z,3.80
2019-04-11T04:48:44.918Z,3.80
2019-04-11T04:51:15.506Z,3.80
2019-04-11T04:53:45.073Z,3.80
2019-04-11T04:56:15.742Z,3.80
2019-04-11T04:58:44.364Z,3.80
2019-04-11T05:01:14.945Z,3.80
2019-04-11T05:03:44.642Z,3.80
2019-04-11T05:06:14.172Z,3.80
2019-04-11T05:08:43.177Z,3.70
2019-04-11T05:11:11.783Z,3.70
2019-04-11T05:13:41.240Z,3.70
2019-04-11T05:16:17.191Z,3.70
2019-04-11T05:18:41.883Z,3.70
2019-04-11T05:21:10.764Z,3.80
2019-04-11T05:23:39.517Z,3.80
2019-04-11T05:26:08.884Z,3.80
2019-04-11T05:28:37.478Z,3.80
2019-04-11T05:31:06.131Z,3.80
2019-04-11T05:33:34.999Z,3.80
2019-04-11T05:36:03.999Z,3.80
2019-04-11T05:38:32.850Z,3.90
2019-04-11T05:41:02.144Z,3.90
2019-04-11T05:43:36.551Z,3.90
2019-04-11T05:46:03.535Z,4.00
2019-04-11T05:48:41.508Z,4.00
2019-04-11T05:51:10.926Z,4.10
2019-04-11T05:53:39.654Z,4.10
2019-04-11T05:56:09.249Z,4.10
2019-04-11T05:58:42.204Z,4.10
2019-04-11T06:01:30.731Z,4.10
2019-04-11T06:04:22.195Z,4.20
2019-04-11T06:06:52.730Z,4.20
2019-04-11T06:09:23.204Z,4.20
2019-04-11T06:12:09.481Z,4.30
2019-04-11T06:14:39.931Z,4.30
2019-04-11T06:17:11.317Z,4.40
2019-04-11T06:19:48.036Z,4.40
2019-04-11T06:22:17.175Z,4.50
2019-04-11T06:24:48.475Z,4.50
2019-04-11T06:27:24.782Z,4.50
2019-04-11T06:30:12.349Z,4.60
2019-04-11T06:32:59.026Z,4.70
2019-04-11T06:35:30.239Z,4.70
2019-04-11T06:38:12.234Z,4.80
2019-04-11T06:40:58.564Z,4.80
2019-04-11T06:43:32.118Z,4.90
2019-04-11T06:46:09.098Z,4.90
2019-04-11T06:48:40.037Z,5.00
2019-04-11T06:51:13.622Z,5.10
2019-04-11T06:53:44.093Z,5.10
2019-04-11T06:56:23.296Z,5.20
2019-04-11T06:58:54.144Z,5.20
2019-04-11T07:01:25.859Z,5.30
2019-04-11T07:03:57.404Z,5.30
2019-04-11T07:06:27.778Z,5.40
2019-04-11T07:08:58.899Z,5.50
2019-04-11T07:11:38.437Z,5.60
2019-04-11T07:14:12.491Z,5.60
2019-04-11T07:16:42.671Z,5.70
2019-04-11T07:19:15.603Z,5.70
2019-04-11T07:21:44.183Z,5.80
2019-04-11T07:24:24.730Z,5.90
2019-04-11T07:26:54.886Z,5.90
2019-04-11T07:29:27.487Z,6.00
2019-04-11T07:32:07.435Z,6.00
2019-04-11T07:34:40.262Z,6.10
2019-04-11T07:37:28.088Z,6.10
2019-04-11T07:40:13.427Z,6.20
2019-04-11T07:42:53.175Z,6.20
2019-04-11T07:45:32.799Z,6.30
2019-04-11T07:48:07.177Z,6.40
2019-04-11T07:50:36.146Z,6.50
2019-04-11T07:53:06.260Z,6.60
2019-04-11T07:55:36.439Z,6.70
2019-04-11T07:58:21.649Z,6.70
2019-04-11T08:01:04.842Z,6.80
2019-04-11T08:03:51.298Z,6.90
2019-04-11T08:06:37.046Z,7.00
2019-04-11T08:09:22.726Z,7.00
2019-04-11T08:11:52.915Z,7.10
2019-04-11T08:14:26.601Z,7.20
2019-04-11T08:17:03.796Z,7.30
2019-04-11T08:19:51.249Z,7.40
2019-04-11T08:22:21.454Z,7.40
2019-04-11T08:24:58.660Z,7.50
2019-04-11T08:27:55.923Z,7.50
2019-04-11T08:30:19.074Z,7.60
2019-04-11T08:32:52.099Z,7.60
2019-04-11T08:35:37.577Z,7.70
2019-04-11T08:38:24.733Z,7.70
2019-04-11T08:40:55.494Z,7.80
2019-04-11T08:43:26.926Z,8.00
2019-04-11T08:46:09.382Z,8.10
2019-04-11T08:48:39.577Z,8.10
2019-04-11T08:51:09.826Z,8.20
2019-04-11T08:53:45.763Z,8.20
2019-04-11T08:56:15.965Z,8.20
2019-04-11T08:58:55.383Z,8.20
2019-04-11T09:01:24.917Z,8.30
2019-04-11T09:04:13.619Z,8.50
2019-04-11T09:06:41.556Z,8.60
2019-04-11T09:09:29.300Z,8.80
2019-04-11T09:12:00.436Z,8.80
2019-04-11T09:14:48.460Z,9.00
2019-04-11T09:17:24.722Z,9.10
2019-04-11T09:19:55.224Z,9.10
2019-04-11T09:22:44.933Z,9.30
2019-04-11T09:25:31.896Z,9.40
2019-04-11T09:28:09.155Z,9.50
2019-04-11T09:30:43.105Z,9.70
2019-04-11T09:33:20.659Z,10.00
2019-04-11T09:35:53.946Z,10.20
2019-04-11T09:38:26.616Z,10.50
2019-04-11T09:41:00.504Z,10.80
2019-04-11T09:43:31.772Z,11.00
2019-04-11T09:46:06.000Z,11.30
2019-04-11T09:48:53.753Z,11.70
2019-04-11T09:51:30.015Z,11.90
2019-04-11T09:54:04.015Z,13.10
2019-04-11T09:56:51.735Z,15.20
2019-04-11T09:59:25.074Z,17.30
2019-04-11T10:02:08.084Z,18.40
2019-04-11T10:04:38.044Z,20.30
2019-04-11T10:07:17.574Z,21.90
2019-04-11T10:10:04.409Z,23.10
2019-04-11T10:12:44.632Z,23.70
2019-04-11T10:15:13.663Z,23.80
2019-04-11T10:17:59.055Z,25.10
2019-04-11T10:20:28.771Z,26.20
2019-04-11T10:23:16.466Z,27.30
2019-04-11T10:25:45.644Z,28.00
2019-04-11T10:28:32.030Z,29.30
2019-04-11T10:31:08.526Z,30.00
2019-04-11T10:33:39.361Z,29.40
2019-04-11T10:36:18.958Z,29.60
2019-04-11T10:38:49.259Z,29.80
2019-04-11T10:41:19.354Z,30.40
2019-04-11T10:43:47.830Z,30.30
2019-04-11T10:46:35.426Z,30.30
2019-04-11T10:49:18.082Z,31.00
2019-04-11T10:51:48.178Z,31.80
2019-04-11T10:54:16.636Z,30.90
2019-04-11T10:57:03.457Z,30.70
2019-04-11T10:59:34.474Z,31.30
2019-04-11T11:02:04.766Z,32.10
2019-04-11T11:04:34.943Z,32.20
2019-04-11T11:07:06.393Z,32.60
2019-04-11T11:09:42.471Z,33.10
2019-04-11T11:12:19.089Z,33.80
2019-04-11T11:14:55.444Z,34.00
2019-04-11T11:17:54.804Z,33.50
2019-04-11T11:20:22.344Z,33.40
2019-04-11T11:22:53.728Z,33.80
2019-04-11T11:25:42.260Z,34.20
2019-04-11T11:28:12.090Z,34.70
2019-04-11T11:30:58.788Z,35.30
2019-04-11T11:33:29.976Z,35.50
2019-04-11T11:36:15.541Z,36.10
2019-04-11T11:38:52.294Z,35.80
2019-04-11T11:41:28.639Z,35.90
2019-04-11T11:43:57.391Z,35.60
2019-04-11T11:46:30.987Z,36.20
2019-04-11T11:49:00.802Z,36.60
2019-04-11T11:51:31.266Z,37.00
2019-04-11T11:54:13.721Z,36.50
2019-04-11T11:56:44.455Z,36.50
2019-04-11T11:59:30.413Z,35.90
2019-04-11T12:02:06.657Z,35.40
2019-04-11T12:04:40.433Z,36.00
2019-04-11T12:07:10.715Z,35.80
2019-04-11T12:09:58.495Z,35.60
2019-04-11T12:12:35.618Z,35.50
2019-04-11T12:15:15.953Z,35.10
2019-04-11T12:18:01.551Z,33.30
2019-04-11T12:20:31.870Z,33.20
2019-04-11T12:23:02.291Z,32.20
2019-04-11T12:25:33.434Z,30.60
2019-04-11T12:28:07.598Z,29.20
2019-04-11T12:30:36.038Z,27.90
2019-04-11T12:33:07.419Z,27.10
2019-04-11T12:35:57.965Z,26.00
2019-04-11T12:38:27.583Z,25.40
2019-04-11T12:41:09.856Z,25.20
2019-04-11T12:43:56.379Z,24.80
2019-04-11T12:46:43.066Z,24.80
2019-04-11T12:49:22.094Z,25.40
2019-04-11T12:52:08.939Z,25.70
2019-04-11T12:54:39.030Z,25.90
2019-04-11T12:57:25.781Z,26.40
2019-04-11T13:00:12.216Z,27.10
2019-04-11T13:02:42.488Z,27.80
2019-04-11T13:05:12.731Z,28.50
2019-04-11T13:07:45.482Z,28.80
2019-04-11T13:10:14.499Z,30.00
2019-04-11T13:12:50.651Z,30.60
2019-04-11T13:15:37.627Z,31.00
2019-04-11T13:18:16.791Z,31.20
2019-04-11T13:21:03.093Z,31.10
2019-04-11T13:23:50.120Z,30.70
2019-04-11T13:26:36.822Z,29.70
2019-04-11T13:29:22.071Z,29.00
2019-04-11T13:31:55.191Z,28.50
2019-04-11T13:34:25.318Z,27.90
2019-04-11T13:37:11.619Z,27.20
2019-04-11T13:39:40.154Z,26.50
2019-04-11T13:42:26.927Z,25.30
2019-04-11T13:44:55.411Z,23.80
2019-04-11T13:47:25.574Z,23.60
2019-04-11T13:49:55.684Z,23.20
2019-04-11T13:52:34.743Z,22.90
2019-04-11T13:55:07.978Z,22.90
2019-04-11T13:57:54.430Z,22.80
2019-04-11T14:00:43.103Z,22.80
2019-04-11T14:03:22.330Z,23.20
2019-04-11T14:05:51.244Z,23.60
2019-04-11T14:08:21.402Z,23.80
2019-04-11T14:11:09.859Z,24.30
2019-04-11T14:13:40.437Z,24.90
2019-04-11T14:16:11.063Z,25.40
2019-04-11T14:18:59.371Z,25.80
2019-04-11T14:21:32.446Z,26.30
2019-04-11T14:24:14.734Z,27.20
2019-04-11T14:26:45.359Z,27.70
2019-04-11T14:29:18.509Z,27.90
2019-04-11T14:31:50.972Z,27.80
2019-04-11T14:34:36.927Z,27.10
2019-04-11T14:37:10.326Z,26.00
2019-04-11T14:39:42.895Z,24.40
2019-04-11T14:42:24.717Z,24.00
2019-04-11T14:44:55.083Z,23.60
2019-04-11T14:47:40.498Z,23.10
2019-04-11T14:50:15.099Z,22.70
2019-04-11T14:53:03.336Z,22.10
2019-04-11T14:55:32.136Z,21.40
2019-04-11T14:58:05.074Z,20.90
2019-04-11T15:00:37.503Z,20.30
2019-04-11T15:03:08.023Z,19.80
2019-04-11T15:05:47.303Z,19.60
2019-04-11T15:08:17.741Z,19.50
2019-04-11T15:10:54.158Z,19.30
2019-04-11T15:13:24.271Z,19.40
2019-04-11T15:16:11.017Z,19.40
2019-04-11T15:18:41.030Z,19.40
2019-04-11T15:21:16.863Z,19.40
2019-04-11T15:23:45.399Z,19.30
2019-04-11T15:26:15.592Z,19.10
2019-04-11T15:28:51.783Z,18.90
2019-04-11T15:31:39.446Z,18.70
2019-04-11T15:34:08.842Z,18.30
2019-04-11T15:36:39.932Z,18.00
2019-04-11T15:39:22.383Z,17.70
2019-04-11T15:42:01.387Z,17.80
2019-04-11T15:44:36.482Z,17.90
2019-04-11T15:47:19.035Z,17.70
2019-04-11T15:50:06.474Z,17.80
2019-04-11T15:52:37.027Z,17.90
2019-04-11T15:55:24.863Z,17.60
2019-04-11T15:57:53.612Z,17.30
2019-04-11T16:00:30.051Z,16.80
2019-04-11T16:03:00.234Z,16.80
2019-04-11T16:05:46.978Z,17.00
2019-04-11T16:08:17.172Z,17.00
2019-04-11T16:11:03.221Z,16.80
2019-04-11T16:13:33.903Z,16.60
2019-04-11T16:16:07.007Z,16.60
2019-04-11T16:18:52.042Z,16.60
2019-04-11T16:21:25.102Z,16.60
2019-04-11T16:23:56.959Z,16.50
2019-04-11T16:26:51.630Z,16.30
2019-04-11T16:29:24.845Z,16.40
2019-04-11T16:31:55.324Z,16.10
2019-04-11T16:34:31.519Z,16.00
2019-04-11T16:37:00.040Z,16.20
2019-04-11T16:39:33.136Z,16.20
2019-04-11T16:42:03.267Z,16.20
2019-04-11T16:44:54.856Z,16.20
2019-04-11T16:47:39.577Z,16.20
2019-04-11T16:50:08.199Z,15.90
2019-04-11T16:52:38.576Z,15.90
2019-04-11T16:55:10.000Z,15.90
2019-04-11T16:57:38.592Z,15.80
2019-04-11T17:00:10.227Z,15.70
2019-04-11T17:02:38.703Z,15.60
2019-04-11T17:05:08.759Z,15.40
2019-04-11T17:07:38.871Z,15.30
2019-04-11T17:10:08.755Z,15.20
2019-04-11T17:12:37.230Z,15.00
2019-04-11T17:15:08.503Z,15.00
2019-04-11T17:17:37.060Z,14.80
2019-04-11T17:20:09.107Z,14.50
2019-04-11T17:22:37.591Z,14.30
2019-04-11T17:25:06.687Z,14.20
2019-04-11T17:27:35.166Z,14.00
2019-04-11T17:30:05.423Z,13.80
2019-04-11T17:32:33.970Z,13.60
2019-04-11T17:35:02.559Z,13.50
2019-04-11T17:37:33.227Z,13.40
2019-04-11T17:40:01.422Z,13.30
2019-04-11T17:42:29.906Z,13.20
2019-04-11T17:44:58.358Z,13.00
2019-04-11T17:47:27.520Z,12.90
2019-04-11T17:49:56.066Z,12.90
2019-04-11T17:52:24.554Z,12.70
2019-04-11T17:54:54.276Z,12.40
2019-04-11T17:57:26.718Z,12.30
2019-04-11T17:59:53.891Z,12.10
2019-04-11T18:02:22.379Z,12.00
2019-04-11T18:04:50.916Z,11.80
2019-04-11T18:07:19.451Z,11.60
2019-04-11T18:09:47.945Z,11.60
2019-04-11T18:12:16.566Z,11.40
2019-04-11T18:14:45.046Z,11.30
2019-04-11T18:17:16.302Z,11.20
2019-04-11T18:19:44.052Z,11.00
2019-04-11T18:22:13.693Z,10.90
2019-04-11T18:24:42.907Z,10.90
2019-04-11T18:27:11.366Z,10.80
2019-04-11T18:29:39.851Z,10.70
2019-04-11T18:32:08.762Z,10.60
2019-04-11T18:34:37.653Z,10.60
2019-04-11T18:37:06.115Z,10.50
2019-04-11T18:39:36.046Z,10.40
2019-04-11T18:42:05.613Z,10.30
2019-04-11T18:44:34.162Z,10.20
2019-04-11T18:47:03.023Z,10.00
2019-04-11T18:49:31.583Z,9.90
2019-04-11T18:52:00.503Z,9.80
2019-04-11T18:54:28.981Z,9.70
2019-04-11T18:56:57.426Z,9.50
2019-04-11T18:59:26.047Z,9.40
2019-04-11T19:01:54.515Z,9.30
2019-04-11T19:04:32.191Z,9.20
2019-04-11T19:06:53.686Z,9.10
2019-04-11T19:09:22.507Z,9.00
2019-04-11T19:11:51.547Z,8.90
2019-04-11T19:14:20.206Z,8.80
2019-04-11T19:16:49.003Z,8.70
2019-04-11T19:19:18.501Z,8.50
2019-04-11T19:21:50.842Z,8.40
2019-04-11T19:24:17.963Z,8.40
2019-04-11T19:26:46.984Z,8.30
2019-04-11T19:29:15.548Z,8.30
2019-04-11T19:31:44.297Z,8.20
2019-04-11T19:34:12.886Z,8.10
2019-04-11T19:36:42.391Z,8.10
2019-04-11T19:39:13.891Z,8.10
2019-04-11T19:41:42.047Z,8.10
2019-04-11T19:44:10.526Z,8.00
2019-04-11T19:46:40.917Z,8.00
2019-04-11T19:49:09.175Z,8.00
2019-04-11T19:51:37.630Z,7.90
2019-04-11T19:54:07.672Z,7.90
2019-04-11T19:56:46.875Z,7.90
2019-04-11T19:59:15.418Z,7.80
2019-04-11T20:01:43.943Z,7.70
2019-04-11T20:04:12.427Z,7.70
2019-04-11T20:06:40.883Z,7.60
2019-04-11T20:09:09.438Z,7.60
2019-04-11T20:11:37.895Z,7.50
2019-04-11T20:14:07.867Z,7.50
2019-04-11T20:16:41.997Z,7.40
2019-04-11T20:19:06.748Z,7.40
2019-04-11T20:21:37.856Z,7.20
2019-04-11T20:24:05.471Z,7.20
2019-04-11T20:26:34.192Z,7.10
2019-04-11T20:29:02.653Z,7.10
2019-04-11T20:31:31.267Z,7.10
2019-04-11T20:34:01.594Z,7.00
2019-04-11T20:36:33.484Z,7.00
2019-04-11T20:39:00.107Z,6.90
2019-04-11T20:41:28.652Z,6.80
2019-04-11T20:43:57.273Z,6.80
2019-04-11T20:46:28.718Z,6.80
2019-04-11T20:48:56.039Z,6.70
2019-04-11T20:51:24.587Z,6.70
2019-04-11T20:53:53.039Z,6.70
2019-04-11T20:56:24.340Z,6.60
2019-04-11T20:58:51.694Z,6.60
2019-04-11T21:01:20.448Z,6.50
2019-04-11T21:03:49.338Z,6.50
2019-04-11T21:06:17.819Z,6.50
2019-04-11T21:08:46.271Z,6.50
2019-04-11T21:11:14.815Z,6.40
2019-04-11T21:13:43.579Z,6.40
2019-04-11T21:16:12.468Z,6.40
2019-04-11T21:18:40.923Z,6.30
2019-04-11T21:21:09.398Z,6.30
2019-04-11T21:23:37.863Z,6.20
2019-04-11T21:26:06.418Z,6.20
2019-04-11T21:28:35.175Z,6.20
2019-04-11T21:31:03.651Z,6.10
2019-04-11T21:33:34.913Z,6.10
2019-04-11T21:36:02.313Z,6.00
2019-04-11T21:38:31.499Z,6.00
2019-04-11T21:41:00.230Z,5.90
2019-04-11T21:43:28.715Z,6.00
2019-04-11T21:45:57.519Z,5.90
2019-04-11T21:48:26.003Z,5.90
2019-04-11T21:50:54.460Z,5.90
2019-04-11T21:53:23.272Z,5.90
2019-04-11T21:55:51.722Z,5.90
2019-04-11T21:58:20.539Z,5.90
2019-04-11T22:00:54.297Z,5.80
2019-04-11T22:03:24.234Z,5.80
2019-04-11T22:05:53.147Z,5.80
2019-04-11T22:08:21.628Z,5.70
2019-04-11T22:10:50.217Z,5.70
2019-04-11T22:13:18.690Z,5.70
2019-04-11T22:15:47.142Z,5.70
2019-04-11T22:18:16.831Z,5.70
2019-04-11T22:20:45.877Z,5.70
2019-04-11T22:23:14.508Z,5.60
2019-04-11T22:25:43.104Z,5.60
2019-04-11T22:28:11.627Z,5.60
2019-04-11T22:30:40.099Z,5.60
2019-04-11T22:33:12.702Z,5.60
2019-04-11T22:35:41.327Z,5.60
2019-04-11T22:38:09.846Z,5.50
2019-04-11T22:40:38.747Z,5.50
2019-04-11T22:43:08.251Z,5.40
2019-04-11T22:45:37.813Z,5.40
2019-04-11T22:48:08.797Z,5.40
2019-04-11T22:50:40.286Z,5.50
2019-04-11T22:53:07.685Z,5.50
2019-04-11T22:55:36.241Z,5.50
2019-04-11T22:58:04.983Z,5.50
2019-04-11T23:00:33.459Z,5.50
2019-04-11T23:03:03.886Z,5.40
2019-04-11T23:05:32.371Z,5.40
2019-04-11T23:08:02.860Z,5.40
2019-04-11T23:10:31.928Z,5.30
2019-04-11T23:13:00.447Z,5.30
2019-04-11T23:15:29.070Z,5.20
2019-04-11T23:17:57.951Z,5.20
2019-04-11T23:20:26.495Z,5.30
2019-04-11T23:22:54.944Z,5.30
2019-04-11T23:25:23.494Z,5.20
2019-04-11T23:27:51.945Z,5.20
2019-04-11T23:30:20.463Z,5.20
2019-04-11T23:32:51.102Z,5.10
2019-04-11T23:35:21.129Z,5.10
2019-04-11T23:37:51.071Z,5.10
2019-04-11T23:40:21.832Z,5.10
2019-04-11T23:42:51.001Z,5.00
2019-04-11T23:45:21.420Z,5.00
2019-04-11T23:47:53.071Z,4.90
2019-04-11T23:50:20.322Z,4.90
2019-04-11T23:52:48.790Z,4.90
2019-04-11T23:55:17.666Z,4.90
2019-04-11T23:57:46.143Z,4.90
